London Airport
CYXU : now visible

Airfield :











YOU CAN JOIN US ON...

 
LOGIN :

Register | Disclaimer

   EN    FR    IT 

 









Legend :    VFR   Marginal VFR   IFR   Intensive IFR   Very Intensive IFR
Visi :
Ceiling :
>= 8 km
>= 3000ft
5 to 8 km
1000 to 3000 ft
1500m to 5 km
500 to 1000 ft
800 to 1500m
200 to 500 ft
< 800m
< 200 ft
Symbols :   Thunderstorms  Fog  Heavy snow  Heavy precipitations  Wind > 20 kt







- Airport Elevation : 912 ft
- IATA code : YXU


CYXU - London

CURRENT METAR :
  • 211400Z 32004KT 260V010 15SM OVC007 08/07 A2999 RMK ST8 SLP162

EXPIRED METARs :
  • 211352Z 31005KT 270V340 15SM OVC008 08/07 A2998 RMK ST8 SLP160
  • 211326Z VRB02KT 12SM OVC006 07/06 A2998 RMK ST8 SLP160
  • 211300Z VRB02KT 12SM OVC004 06/06 A2997 RMK ST8 SLP158
  • 211234Z 27004KT 250V320 5SM BR OVC004 06/06 A2996 RMK ST8 VIS E 21/2 SLP154
  • 211225Z 26004KT 2SM BR OVC003 06/06 A2996 RMK ST8 SLP153
  • 211209Z 28005KT 1 3/4SM R15/5000VP6000FT/D BR OVC002 06/06 A2995 RMK ST8 VIS LWR W-N SLP151
  • 211200Z 27004KT 1SM R15/4500VP6000FT/U BR OVC002 06/06 A2995 RMK ST8 VIS LWR W-N SLP149
  • 211137Z 28005KT 3/4SM R15/3500VP6000FT/D BR OVC002 06/05 A2994 RMK ST8 SLP145

TAF TAF CYXU
Valid from the 21 at 12:00 until the 22 at 12:00 UTC


211138Z 2112/2212 26005KT 11/2SM -DZ BR BKN003 OVC025
TEMPO 2112/2115 6SM BR SCT003 OVC025
FM211500 34006KT 6SM -DZ BR BKN008 OVC025
TEMPO 2115/2117 P6SM NSW SCT008 OVC025
FM211700 35005KT P6SM OVC020
TEMPO 2117/2119 BKN025
FM211900 02005KT P6SM SCT025 BKN080
FM220300 VRB03KT P6SM FEW025 SCT100
PROB30 2208/2212 1/2SM FG RMK NXT FCST BY 211800Z
CZYZ FIR / North America



MET'MAP, your aeronautical weather chart ! - Copyright ORBIFLY December 2007 - Disclaimer

ORBIFLY MET'MAP TEAM :

Programming & Development : Alexandra Zaïnal
Concept & Development : Baudouin d'Aumeries
Co-Development & Prog : Marc-Olivier Méhu
Technical & hardware support : Manuel Goepfert

Contact : metmap@orbifly.com




SOURCES & CREDITS :

   NOAA       Earth
Advisory